createdAt,value
2018-11-26T00:01:44.231Z,3.80
2018-11-26T00:04:13.038Z,3.80
2018-11-26T00:06:41.599Z,3.70
2018-11-26T00:09:09.827Z,3.80
2018-11-26T00:11:38.530Z,3.80
2018-11-26T00:14:06.782Z,3.70
2018-11-26T00:16:35.055Z,3.80
2018-11-26T00:19:04.358Z,3.80
2018-11-26T00:21:32.642Z,3.80
2018-11-26T00:24:00.853Z,3.80
2018-11-26T00:26:29.113Z,3.80
2018-11-26T00:28:57.343Z,3.70
2018-11-26T00:31:25.562Z,3.70
2018-11-26T00:33:53.785Z,3.70
2018-11-26T00:36:22.039Z,3.70
2018-11-26T00:38:50.250Z,3.70
2018-11-26T00:41:18.502Z,3.70
2018-11-26T00:43:46.746Z,3.70
2018-11-26T00:46:15.011Z,3.70
2018-11-26T00:48:43.275Z,3.70
2018-11-26T00:51:11.535Z,3.60
2018-11-26T00:53:39.745Z,3.60
2018-11-26T00:56:08.003Z,3.60
2018-11-26T00:58:36.243Z,3.60
2018-11-26T01:01:04.527Z,3.60
2018-11-26T01:03:32.853Z,3.60
2018-11-26T01:06:01.091Z,3.60
2018-11-26T01:08:29.470Z,3.60
2018-11-26T01:10:57.697Z,3.60
2018-11-26T01:13:25.949Z,3.60
2018-11-26T01:15:54.164Z,3.50
2018-11-26T01:18:22.394Z,3.50
2018-11-26T01:20:50.642Z,3.50
2018-11-26T01:23:18.893Z,3.60
2018-11-26T01:25:47.166Z,3.50
2018-11-26T01:28:15.413Z,3.50
2018-11-26T01:30:43.642Z,3.50
2018-11-26T01:33:11.887Z,3.50
2018-11-26T01:35:40.212Z,3.50
2018-11-26T01:38:08.417Z,3.50
2018-11-26T01:40:42.269Z,3.50
2018-11-26T01:43:10.539Z,3.50
2018-11-26T01:45:38.746Z,3.60
2018-11-26T01:48:07.010Z,3.60
2018-11-26T01:50:35.249Z,3.50
2018-11-26T01:53:03.503Z,3.50
2018-11-26T01:55:31.750Z,3.50
2018-11-26T01:58:00.017Z,3.50
2018-11-26T02:00:28.258Z,3.50
2018-11-26T02:02:56.530Z,3.50
2018-11-26T02:05:24.778Z,3.50
2018-11-26T02:07:53.017Z,3.50
2018-11-26T02:10:21.371Z,3.40
2018-11-26T02:12:49.793Z,3.30
2018-11-26T02:15:39.953Z,3.40
2018-11-26T02:18:08.778Z,3.30
2018-11-26T02:20:37.045Z,3.30
2018-11-26T02:23:05.414Z,3.30
2018-11-26T02:25:33.708Z,3.30
2018-11-26T02:28:01.953Z,3.30
2018-11-26T02:30:30.207Z,3.30
2018-11-26T02:32:58.446Z,3.20
2018-11-26T02:35:26.668Z,3.20
2018-11-26T02:37:55.006Z,3.20
2018-11-26T02:40:24.278Z,3.20
2018-11-26T02:42:52.512Z,3.20
2018-11-26T02:45:20.845Z,3.30
2018-11-26T02:47:49.097Z,3.20
2018-11-26T02:50:17.371Z,3.20
2018-11-26T02:52:45.663Z,3.20
2018-11-26T02:55:14.010Z,3.20
2018-11-26T02:57:42.222Z,3.20
2018-11-26T03:00:12.416Z,3.20
2018-11-26T03:02:40.734Z,3.20
2018-11-26T03:05:10.459Z,3.20
2018-11-26T03:07:38.690Z,3.10
2018-11-26T03:10:08.591Z,3.10
2018-11-26T03:12:37.467Z,3.10
2018-11-26T03:15:08.827Z,3.10
2018-11-26T03:17:37.414Z,3.10
2018-11-26T03:20:06.771Z,3.10
2018-11-26T03:22:35.012Z,3.10
2018-11-26T03:25:03.373Z,3.10
2018-11-26T03:27:31.661Z,3.10
2018-11-26T03:29:59.887Z,3.10
2018-11-26T03:32:28.143Z,3.10
2018-11-26T03:34:56.343Z,3.00
2018-11-26T03:37:24.606Z,3.00
2018-11-26T03:39:52.811Z,2.90
2018-11-26T03:42:21.082Z,2.90
2018-11-26T03:44:49.281Z,3.00
2018-11-26T03:47:17.529Z,3.00
2018-11-26T03:49:45.710Z,3.00
2018-11-26T03:52:13.945Z,3.00
2018-11-26T03:54:42.147Z,3.00
2018-11-26T03:57:10.383Z,3.10
2018-11-26T03:59:38.586Z,3.00
2018-11-26T04:02:06.844Z,3.00
2018-11-26T04:04:35.069Z,3.00
2018-11-26T04:07:03.331Z,3.00
2018-11-26T04:09:31.557Z,3.00
2018-11-26T04:11:59.789Z,3.00
2018-11-26T04:14:28.010Z,3.00
2018-11-26T04:16:56.209Z,2.90
2018-11-26T04:19:24.443Z,3.00
2018-11-26T04:21:52.618Z,3.00
2018-11-26T04:24:20.831Z,3.00
2018-11-26T04:26:49.023Z,2.90
2018-11-26T04:29:17.245Z,2.90
2018-11-26T04:31:45.466Z,2.90
2018-11-26T04:34:13.740Z,2.90
2018-11-26T04:36:42.061Z,2.90
2018-11-26T04:39:10.378Z,2.90
2018-11-26T04:41:38.591Z,2.90
2018-11-26T04:44:06.782Z,2.90
2018-11-26T04:46:35.029Z,2.90
2018-11-26T04:49:03.245Z,2.80
2018-11-26T04:51:31.499Z,2.80
2018-11-26T04:53:59.678Z,2.80
2018-11-26T04:56:27.881Z,2.80
2018-11-26T04:58:56.063Z,2.90
2018-11-26T05:01:24.326Z,2.80
2018-11-26T05:03:52.541Z,2.80
2018-11-26T05:06:20.816Z,2.90
2018-11-26T05:08:49.061Z,2.90
2018-11-26T05:11:17.340Z,2.80
2018-11-26T05:13:45.566Z,2.80
2018-11-26T05:16:14.500Z,2.70
2018-11-26T05:18:42.128Z,2.70
2018-11-26T05:21:10.395Z,2.80
2018-11-26T05:23:38.656Z,2.80
2018-11-26T05:26:06.869Z,2.80
2018-11-26T05:28:35.042Z,2.80
2018-11-26T05:31:03.303Z,2.70
2018-11-26T05:33:31.520Z,2.70
2018-11-26T05:35:59.754Z,2.80
2018-11-26T05:38:27.942Z,2.80
2018-11-26T05:40:56.166Z,2.70
2018-11-26T05:43:24.386Z,2.80
2018-11-26T05:45:52.625Z,2.80
2018-11-26T05:48:20.814Z,2.80
2018-11-26T05:50:49.042Z,2.80
2018-11-26T05:53:17.221Z,2.80
2018-11-26T05:55:45.450Z,2.80
2018-11-26T05:58:13.650Z,2.80
2018-11-26T06:00:41.827Z,2.80
2018-11-26T06:03:10.060Z,2.80
2018-11-26T06:05:38.242Z,2.80
2018-11-26T06:08:06.604Z,2.80
2018-11-26T06:10:34.862Z,2.70
2018-11-26T06:13:03.169Z,2.70
2018-11-26T06:15:31.357Z,2.70
2018-11-26T06:17:59.713Z,2.70
2018-11-26T06:20:27.941Z,2.70
2018-11-26T06:22:56.102Z,2.70
2018-11-26T06:25:24.334Z,2.60
2018-11-26T06:27:52.501Z,2.60
2018-11-26T06:30:22.357Z,2.60
2018-11-26T06:32:50.546Z,2.60
2018-11-26T06:35:20.108Z,2.60
2018-11-26T06:37:48.318Z,2.60
2018-11-26T06:40:16.561Z,2.60
2018-11-26T06:42:44.795Z,2.60
2018-11-26T06:45:16.253Z,2.70
2018-11-26T06:47:44.474Z,2.70
2018-11-26T06:50:13.851Z,2.70
2018-11-26T06:52:42.117Z,2.80
2018-11-26T06:55:13.554Z,2.80
2018-11-26T06:57:41.754Z,2.80
2018-11-26T07:00:12.442Z,2.80
2018-11-26T07:02:40.709Z,2.80
2018-11-26T07:05:11.005Z,2.80
2018-11-26T07:07:39.232Z,2.80
2018-11-26T07:10:08.785Z,2.80
2018-11-26T07:12:37.079Z,2.80
2018-11-26T07:15:07.731Z,2.70
2018-11-26T07:17:36.075Z,2.70
2018-11-26T07:20:06.402Z,2.70
2018-11-26T07:22:34.781Z,2.60
2018-11-26T07:25:03.034Z,2.60
2018-11-26T07:27:31.219Z,2.60
2018-11-26T07:29:59.437Z,2.70
2018-11-26T07:32:27.682Z,2.70
2018-11-26T07:34:55.906Z,2.70
2018-11-26T07:37:24.094Z,2.70
2018-11-26T07:39:52.323Z,2.70
2018-11-26T07:42:20.513Z,2.70
2018-11-26T07:44:48.717Z,2.70
2018-11-26T07:47:16.952Z,2.70
2018-11-26T07:49:45.159Z,2.60
2018-11-26T07:52:13.343Z,2.60
2018-11-26T07:54:41.582Z,2.60
2018-11-26T07:57:09.795Z,2.70
2018-11-26T07:59:41.022Z,2.70
2018-11-26T08:02:09.218Z,2.80
2018-11-26T08:04:37.454Z,2.90
2018-11-26T08:07:05.922Z,2.90
2018-11-26T08:09:34.175Z,2.90
2018-11-26T08:12:02.446Z,3.00
2018-11-26T08:14:30.694Z,2.90
2018-11-26T08:16:58.925Z,3.00
2018-11-26T08:19:27.201Z,3.00
2018-11-26T08:21:55.554Z,3.00
2018-11-26T08:24:23.814Z,2.90
2018-11-26T08:26:52.014Z,3.00
2018-11-26T08:29:20.250Z,2.90
2018-11-26T08:31:55.030Z,2.90
2018-11-26T08:34:23.282Z,2.90
2018-11-26T08:37:54.753Z,3.00
2018-11-26T08:40:25.031Z,3.00
2018-11-26T08:42:59.035Z,3.00
2018-11-26T08:45:29.563Z,2.90
2018-11-26T08:48:05.306Z,2.90
2018-11-26T08:50:33.771Z,2.90
2018-11-26T08:53:02.433Z,2.90
2018-11-26T08:55:31.354Z,2.90
2018-11-26T08:58:00.138Z,2.90
2018-11-26T09:00:28.417Z,2.90
2018-11-26T09:03:05.314Z,3.00
2018-11-26T09:05:35.499Z,3.00
2018-11-26T09:08:03.786Z,3.00
2018-11-26T09:10:32.565Z,3.00
2018-11-26T09:13:01.174Z,3.10
2018-11-26T09:15:29.413Z,3.10
2018-11-26T09:17:57.650Z,3.10
2018-11-26T09:20:26.352Z,3.10
2018-11-26T09:22:55.297Z,3.20
2018-11-26T09:25:23.644Z,3.20
2018-11-26T09:27:51.843Z,3.20
2018-11-26T09:30:20.638Z,3.30
2018-11-26T09:32:48.867Z,3.40
2018-11-26T09:35:17.255Z,3.40
2018-11-26T09:37:45.461Z,3.40
2018-11-26T09:40:15.083Z,3.30
2018-11-26T09:42:43.394Z,3.30
2018-11-26T09:45:18.453Z,3.30
2018-11-26T09:47:46.758Z,3.30
2018-11-26T09:50:17.094Z,3.30
2018-11-26T09:52:45.396Z,3.30
2018-11-26T09:55:14.739Z,3.30
2018-11-26T09:57:42.962Z,3.30
2018-11-26T10:00:12.479Z,3.20
2018-11-26T10:02:41.236Z,3.30
2018-11-26T10:05:11.254Z,3.20
2018-11-26T10:07:39.521Z,3.30
2018-11-26T10:10:10.222Z,3.30
2018-11-26T10:12:38.896Z,3.30
2018-11-26T10:15:13.882Z,3.30
2018-11-26T10:17:42.152Z,3.30
2018-11-26T10:20:11.060Z,3.30
2018-11-26T10:22:39.365Z,3.30
2018-11-26T10:25:10.985Z,3.30
2018-11-26T10:27:39.224Z,3.40
2018-11-26T10:30:09.953Z,3.40
2018-11-26T10:32:38.559Z,3.50
2018-11-26T10:35:08.245Z,3.50
2018-11-26T10:37:36.746Z,3.40
2018-11-26T10:40:09.964Z,3.40
2018-11-26T10:42:38.259Z,3.40
2018-11-26T10:45:08.483Z,3.30
2018-11-26T10:47:36.741Z,3.40
2018-11-26T10:50:06.343Z,3.40
2018-11-26T10:52:34.603Z,3.40
2018-11-26T10:55:02.846Z,3.40
2018-11-26T10:57:31.133Z,3.20
2018-11-26T10:59:59.705Z,3.20
2018-11-26T11:02:33.229Z,3.20
2018-11-26T11:05:01.474Z,3.30
2018-11-26T11:07:29.710Z,3.20
2018-11-26T11:09:57.907Z,3.30
2018-11-26T11:12:26.145Z,3.40
2018-11-26T11:14:54.342Z,3.40
2018-11-26T11:17:22.773Z,3.30
2018-11-26T11:19:51.008Z,3.20
2018-11-26T11:22:19.430Z,3.20
2018-11-26T11:24:47.751Z,3.10
2018-11-26T11:27:16.006Z,3.10
2018-11-26T11:29:44.254Z,3.10
2018-11-26T11:32:12.455Z,3.10
2018-11-26T11:34:40.708Z,3.20
2018-11-26T11:37:08.913Z,3.10
2018-11-26T11:39:37.148Z,3.00
2018-11-26T11:42:05.845Z,3.00
2018-11-26T11:44:34.089Z,3.10
2018-11-26T11:47:02.347Z,3.10
2018-11-26T11:49:30.593Z,3.00
2018-11-26T11:51:58.821Z,2.80
2018-11-26T11:54:27.080Z,3.00
2018-11-26T11:56:55.321Z,3.00
2018-11-26T11:59:23.879Z,3.00
2018-11-26T12:01:52.331Z,3.00
2018-11-26T12:04:20.584Z,3.10
2018-11-26T12:06:48.792Z,3.10
2018-11-26T12:09:17.154Z,3.10
2018-11-26T12:11:45.399Z,3.20
2018-11-26T12:14:13.621Z,3.10
2018-11-26T12:16:41.852Z,2.90
2018-11-26T12:19:10.136Z,2.90
2018-11-26T12:21:38.462Z,2.80
2018-11-26T12:24:07.195Z,2.80
2018-11-26T12:26:35.504Z,2.90
2018-11-26T12:29:03.895Z,2.90
2018-11-26T12:31:32.228Z,3.00
2018-11-26T12:34:00.453Z,3.00
2018-11-26T12:36:28.669Z,2.90
2018-11-26T12:38:56.911Z,2.90
2018-11-26T12:41:25.218Z,2.80
2018-11-26T12:43:53.496Z,2.90
2018-11-26T12:46:21.796Z,2.90
2018-11-26T12:48:50.084Z,2.90
2018-11-26T12:51:18.301Z,2.90
2018-11-26T12:53:46.578Z,2.90
2018-11-26T12:56:14.840Z,2.90
2018-11-26T12:58:43.069Z,2.90
2018-11-26T13:01:11.337Z,2.90
2018-11-26T13:03:39.599Z,3.00
2018-11-26T13:06:07.844Z,3.10
2018-11-26T13:08:36.115Z,3.20
2018-11-26T13:11:04.404Z,3.20
2018-11-26T13:13:32.664Z,3.20
2018-11-26T13:16:00.934Z,3.10
2018-11-26T13:18:29.212Z,3.10
2018-11-26T13:20:57.424Z,3.10
2018-11-26T13:23:25.708Z,3.10
2018-11-26T13:25:54.073Z,2.90
2018-11-26T13:28:22.529Z,2.90
2018-11-26T13:30:50.911Z,2.80
2018-11-26T13:33:19.697Z,2.80
2018-11-26T13:35:49.184Z,2.70
2018-11-26T13:38:17.240Z,2.60
2018-11-26T13:40:45.512Z,2.70
2018-11-26T13:43:15.221Z,2.60
2018-11-26T13:45:45.687Z,2.60
2018-11-26T13:48:15.403Z,2.60
2018-11-26T13:50:48.502Z,2.60
2018-11-26T13:53:16.764Z,2.60
2018-11-26T13:55:44.986Z,2.70
2018-11-26T13:58:13.288Z,2.60
2018-11-26T14:00:41.662Z,2.70
2018-11-26T14:03:09.923Z,2.60
2018-11-26T14:05:38.159Z,2.50
2018-11-26T14:08:06.775Z,2.70
2018-11-26T14:10:35.025Z,2.60
2018-11-26T14:13:08.087Z,2.50
2018-11-26T14:15:36.352Z,2.40
2018-11-26T14:18:04.730Z,2.40
2018-11-26T14:20:33.065Z,2.30
2018-11-26T14:23:01.412Z,2.20
2018-11-26T14:25:29.640Z,2.20
2018-11-26T14:27:57.916Z,2.20
2018-11-26T14:30:27.304Z,2.10
2018-11-26T14:32:55.751Z,2.10
2018-11-26T14:35:24.040Z,2.10
2018-11-26T14:37:53.703Z,2.00
2018-11-26T14:40:26.493Z,2.00
2018-11-26T14:42:54.867Z,2.00
2018-11-26T14:45:23.124Z,2.10
2018-11-26T14:47:51.384Z,2.00
2018-11-26T14:50:19.671Z,2.00
2018-11-26T14:52:48.894Z,2.00
2018-11-26T14:55:22.701Z,2.00
2018-11-26T14:57:51.024Z,2.00
2018-11-26T15:00:19.985Z,2.00
2018-11-26T15:02:48.325Z,2.10
2018-11-26T15:05:16.760Z,2.10
2018-11-26T15:07:45.300Z,2.10
2018-11-26T15:10:14.726Z,2.10
2018-11-26T15:12:43.053Z,2.00
2018-11-26T15:15:15.398Z,2.00
2018-11-26T15:17:44.336Z,2.00
2018-11-26T15:20:14.141Z,1.90
2018-11-26T15:22:42.400Z,1.80
2018-11-26T15:25:28.418Z,1.80
2018-11-26T15:27:58.125Z,1.70
2018-11-26T15:30:26.396Z,1.80
2018-11-26T15:32:54.640Z,1.90
2018-11-26T15:35:23.827Z,1.90
2018-11-26T15:37:52.133Z,2.00
2018-11-26T15:40:21.160Z,2.00
2018-11-26T15:42:49.599Z,2.00
2018-11-26T15:45:26.765Z,2.00
2018-11-26T15:47:57.128Z,2.00
2018-11-26T15:50:25.456Z,2.00
2018-11-26T15:52:53.683Z,2.00
2018-11-26T15:55:22.320Z,2.00
2018-11-26T15:57:50.668Z,2.00
2018-11-26T16:00:22.044Z,2.00
2018-11-26T16:02:50.774Z,2.00
2018-11-26T16:05:21.233Z,2.00
2018-11-26T16:07:50.176Z,2.00
2018-11-26T16:10:18.408Z,2.00
2018-11-26T16:12:48.997Z,2.00
2018-11-26T16:15:18.813Z,2.00
2018-11-26T16:17:47.077Z,2.00
2018-11-26T16:20:16.875Z,1.90
2018-11-26T16:22:45.151Z,1.90
2018-11-26T16:25:16.816Z,1.80
2018-11-26T16:27:45.059Z,1.80
2018-11-26T16:30:15.295Z,1.80
2018-11-26T16:32:44.801Z,1.80
2018-11-26T16:35:15.362Z,1.80
2018-11-26T16:37:43.631Z,1.80
2018-11-26T16:40:13.340Z,1.80
2018-11-26T16:42:41.593Z,1.70
2018-11-26T16:45:14.987Z,1.70
2018-11-26T16:47:43.863Z,1.80
2018-11-26T16:50:13.233Z,1.70
2018-11-26T16:52:41.448Z,1.80
2018-11-26T16:55:11.052Z,1.80
2018-11-26T16:57:39.340Z,1.70
2018-11-26T17:00:16.978Z,1.70
2018-11-26T17:02:45.917Z,1.70
2018-11-26T17:05:24.364Z,1.70
2018-11-26T17:07:52.583Z,1.70
2018-11-26T17:10:20.796Z,1.60
2018-11-26T17:12:49.088Z,1.60
2018-11-26T17:15:18.099Z,1.70
2018-11-26T17:17:46.415Z,1.70
2018-11-26T17:20:15.771Z,1.70
2018-11-26T17:22:44.276Z,1.70
2018-11-26T17:25:13.839Z,1.70
2018-11-26T17:27:42.715Z,1.60
2018-11-26T17:30:16.003Z,1.70
2018-11-26T17:32:44.588Z,1.70
2018-11-26T17:35:13.755Z,1.70
2018-11-26T17:37:42.927Z,1.70
2018-11-26T17:40:15.671Z,1.70
2018-11-26T17:42:44.019Z,1.70
2018-11-26T17:45:13.472Z,1.70
2018-11-26T17:47:43.899Z,1.60
2018-11-26T17:50:45.512Z,1.60
2018-11-26T17:53:16.955Z,1.60
2018-11-26T17:55:50.448Z,1.70
2018-11-26T17:58:19.757Z,1.70
2018-11-26T18:00:50.948Z,1.70
2018-11-26T18:03:19.167Z,1.70
2018-11-26T18:05:47.409Z,1.70
2018-11-26T18:08:16.836Z,1.70
2018-11-26T18:10:45.279Z,1.70
2018-11-26T18:13:13.525Z,1.70
2018-11-26T18:15:41.822Z,1.70
2018-11-26T18:18:11.625Z,1.60
2018-11-26T18:20:39.988Z,1.60
2018-11-26T18:23:08.931Z,1.60
2018-11-26T18:25:37.235Z,1.60
2018-11-26T18:28:10.272Z,1.60
2018-11-26T18:30:47.540Z,1.60
2018-11-26T18:33:15.877Z,1.70
2018-11-26T18:35:44.640Z,1.70
2018-11-26T18:38:12.965Z,1.70
2018-11-26T18:40:42.564Z,1.70
2018-11-26T18:43:10.806Z,1.60
2018-11-26T18:45:40.043Z,1.50
2018-11-26T18:48:09.437Z,1.40
2018-11-26T18:50:37.704Z,1.30
2018-11-26T18:53:06.795Z,1.30
2018-11-26T18:55:37.151Z,1.30
2018-11-26T18:58:04.840Z,1.30
2018-11-26T19:00:36.860Z,1.30
2018-11-26T19:03:06.348Z,1.30
2018-11-26T19:05:34.468Z,1.20
2018-11-26T19:08:02.764Z,1.20
2018-11-26T19:10:32.644Z,1.30
2018-11-26T19:13:19.280Z,1.20
2018-11-26T19:15:48.848Z,1.30
2018-11-26T19:18:25.340Z,1.30
2018-11-26T19:20:53.865Z,1.30
2018-11-26T19:23:22.668Z,1.30
2018-11-26T19:25:52.043Z,1.30
2018-11-26T19:28:20.547Z,1.30
2018-11-26T19:30:48.628Z,1.30
2018-11-26T19:33:16.885Z,1.20
2018-11-26T19:35:45.248Z,1.20
2018-11-26T19:38:13.617Z,1.20
2018-11-26T19:40:41.913Z,1.20
2018-11-26T19:43:10.449Z,1.30
2018-11-26T19:45:38.864Z,1.30
2018-11-26T19:48:09.516Z,1.30
2018-11-26T19:50:38.940Z,1.30
2018-11-26T19:53:09.305Z,1.30
2018-11-26T19:55:39.160Z,1.30
2018-11-26T19:58:10.319Z,1.20
2018-11-26T20:00:39.704Z,1.20
2018-11-26T20:03:13.816Z,1.20
2018-11-26T20:05:53.055Z,1.20
2018-11-26T20:08:22.529Z,1.20
2018-11-26T20:10:50.788Z,1.20
2018-11-26T20:13:19.005Z,1.30
2018-11-26T20:15:47.272Z,1.30
2018-11-26T20:18:15.533Z,1.20
2018-11-26T20:20:43.725Z,1.20
2018-11-26T20:23:11.948Z,1.20
2018-11-26T20:25:40.455Z,1.20
2018-11-26T20:28:08.760Z,1.10
2018-11-26T20:30:37.247Z,1.10
2018-11-26T20:33:06.252Z,1.10
2018-11-26T20:35:34.483Z,1.10
2018-11-26T20:38:02.774Z,1.10
2018-11-26T20:40:31.133Z,1.10
2018-11-26T20:42:59.348Z,1.20
2018-11-26T20:45:27.624Z,1.10
2018-11-26T20:47:55.916Z,1.20
2018-11-26T20:50:27.428Z,1.20
2018-11-26T20:52:56.304Z,1.20
2018-11-26T20:55:25.621Z,1.20
2018-11-26T20:57:55.407Z,1.20
2018-11-26T21:00:27.823Z,1.20
2018-11-26T21:03:03.952Z,1.20
2018-11-26T21:05:33.773Z,1.20
2018-11-26T21:08:02.594Z,1.20
2018-11-26T21:10:31.305Z,1.30
2018-11-26T21:12:59.997Z,1.20
2018-11-26T21:15:28.267Z,1.20
2018-11-26T21:17:57.551Z,1.20
2018-11-26T21:20:43.111Z,1.20
2018-11-26T21:23:14.211Z,1.20
2018-11-26T21:25:41.545Z,1.20
2018-11-26T21:28:09.821Z,1.20
2018-11-26T21:30:38.060Z,1.20
2018-11-26T21:33:06.347Z,1.20
2018-11-26T21:35:34.676Z,1.20
2018-11-26T21:38:02.966Z,1.20
2018-11-26T21:40:31.231Z,1.20
2018-11-26T21:43:00.233Z,1.20
2018-11-26T21:45:30.896Z,1.20
2018-11-26T21:47:59.232Z,1.20
2018-11-26T21:50:27.452Z,1.20
2018-11-26T21:52:55.743Z,1.30
2018-11-26T21:55:24.043Z,1.30
2018-11-26T21:57:52.284Z,1.30
2018-11-26T22:00:21.967Z,1.30
2018-11-26T22:02:50.502Z,1.20
2018-11-26T22:05:19.254Z,1.20
2018-11-26T22:07:47.516Z,1.20
2018-11-26T22:10:17.020Z,1.20
2018-11-26T22:12:47.432Z,1.20
2018-11-26T22:15:15.742Z,1.20
2018-11-26T22:17:44.015Z,1.20
2018-11-26T22:20:14.784Z,1.20
2018-11-26T22:22:43.091Z,1.20
2018-11-26T22:25:12.029Z,1.30
2018-11-26T22:27:40.339Z,1.20
2018-11-26T22:30:15.895Z,1.20
2018-11-26T22:32:44.211Z,1.20
2018-11-26T22:35:12.503Z,1.30
2018-11-26T22:37:40.767Z,1.30
2018-11-26T22:40:13.220Z,1.30
2018-11-26T22:42:41.835Z,1.30
2018-11-26T22:45:14.281Z,1.30
2018-11-26T22:47:43.435Z,1.30
2018-11-26T22:50:13.822Z,1.30
2018-11-26T22:52:42.232Z,1.30
2018-11-26T22:55:11.764Z,1.30
2018-11-26T22:57:40.264Z,1.30
2018-11-26T23:00:22.615Z,1.30
2018-11-26T23:02:51.740Z,1.20
2018-11-26T23:05:20.132Z,1.20
2018-11-26T23:07:48.395Z,1.20
2018-11-26T23:10:16.668Z,1.30
2018-11-26T23:12:44.999Z,1.20
2018-11-26T23:15:14.389Z,1.20
2018-11-26T23:17:43.276Z,1.20
2018-11-26T23:20:13.598Z,1.20
2018-11-26T23:22:41.935Z,1.20
2018-11-26T23:25:16.297Z,1.20
2018-11-26T23:27:44.687Z,1.20
2018-11-26T23:30:19.092Z,1.20
2018-11-26T23:32:48.591Z,1.20
2018-11-26T23:35:16.911Z,1.20
2018-11-26T23:37:45.171Z,1.20
2018-11-26T23:40:13.801Z,1.20
2018-11-26T23:42:42.115Z,1.20
2018-11-26T23:45:11.559Z,1.20
2018-11-26T23:47:39.849Z,1.20
2018-11-26T23:50:09.709Z,1.20
2018-11-26T23:52:41.688Z,1.20
2018-11-26T23:55:13.989Z,1.20
2018-11-26T23:57:42.279Z,1.20
